sensor_id;sensor_type;location;lat;lon;timestamp;temperature;humidity
37281;DHT22;23169;41.804;12.596;2023-04-25T00:01:49;13.70;99.90
37281;DHT22;23169;41.804;12.596;2023-04-25T00:04:19;13.80;94.40
37281;DHT22;23169;41.804;12.596;2023-04-25T00:06:49;13.80;96.60
37281;DHT22;23169;41.804;12.596;2023-04-25T00:09:18;13.80;98.40
37281;DHT22;23169;41.804;12.596;2023-04-25T00:11:48;13.80;98.70
37281;DHT22;23169;41.804;12.596;2023-04-25T00:14:17;13.80;97.80
37281;DHT22;23169;41.804;12.596;2023-04-25T00:16:47;13.80;96.80
37281;DHT22;23169;41.804;12.596;2023-04-25T00:19:16;13.80;96.20
37281;DHT22;23169;41.804;12.596;2023-04-25T00:21:45;13.80;79.30
37281;DHT22;23169;41.804;12.596;2023-04-25T00:24:14;13.50;78.70
37281;DHT22;23169;41.804;12.596;2023-04-25T00:26:43;13.70;61.70
37281;DHT22;23169;41.804;12.596;2023-04-25T00:29:13;13.70;64.20
37281;DHT22;23169;41.804;12.596;2023-04-25T00:31:42;13.70;65.70
37281;DHT22;23169;41.804;12.596;2023-04-25T00:34:15;13.70;70.70
37281;DHT22;23169;41.804;12.596;2023-04-25T00:36:44;13.70;75.70
37281;DHT22;23169;41.804;12.596;2023-04-25T00:39:13;13.70;81.00
37281;DHT22;23169;41.804;12.596;2023-04-25T00:41:43;13.70;86.50
37281;DHT22;23169;41.804;12.596;2023-04-25T00:44:12;13.70;87.10
37281;DHT22;23169;41.804;12.596;2023-04-25T00:46:42;13.70;84.30
37281;DHT22;23169;41.804;12.596;2023-04-25T00:49:11;13.70;79.60
37281;DHT22;23169;41.804;12.596;2023-04-25T00:51:44;13.70;75.90
37281;DHT22;23169;41.804;12.596;2023-04-25T00:54:13;13.70;63.00
37281;DHT22;23169;41.804;12.596;2023-04-25T00:56:44;13.60;48.40
37281;DHT22;23169;41.804;12.596;2023-04-25T00:59:14;13.50;41.90
37281;DHT22;23169;41.804;12.596;2023-04-25T01:01:45;13.10;58.90
37281;DHT22;23169;41.804;12.596;2023-04-25T01:04:14;13.40;35.60
37281;DHT22;23169;41.804;12.596;2023-04-25T01:06:43;13.40;30.40
37281;DHT22;23169;41.804;12.596;2023-04-25T01:09:13;13.30;28.80
37281;DHT22;23169;41.804;12.596;2023-04-25T01:11:43;13.30;27.00
37281;DHT22;23169;41.804;12.596;2023-04-25T01:14:12;13.30;27.90
37281;DHT22;23169;41.804;12.596;2023-04-25T01:16:45;13.30;26.10
37281;DHT22;23169;41.804;12.596;2023-04-25T01:19:17;13.30;27.00
37281;DHT22;23169;41.804;12.596;2023-04-25T01:21:46;13.30;27.90
37281;DHT22;23169;41.804;12.596;2023-04-25T01:24:15;13.30;27.50
37281;DHT22;23169;41.804;12.596;2023-04-25T01:26:46;13.30;26.50
37281;DHT22;23169;41.804;12.596;2023-04-25T01:29:19;13.20;25.60
37281;DHT22;23169;41.804;12.596;2023-04-25T01:31:49;13.20;25.10
37281;DHT22;23169;41.804;12.596;2023-04-25T01:34:18;13.20;25.10
37281;DHT22;23169;41.804;12.596;2023-04-25T01:36:50;13.20;25.50
37281;DHT22;23169;41.804;12.596;2023-04-25T01:39:19;13.20;25.40
37281;DHT22;23169;41.804;12.596;2023-04-25T01:41:48;13.20;25.60
37281;DHT22;23169;41.804;12.596;2023-04-25T01:44:16;13.20;25.60
37281;DHT22;23169;41.804;12.596;2023-04-25T01:46:45;13.20;25.80
37281;DHT22;23169;41.804;12.596;2023-04-25T01:49:14;13.20;25.30
37281;DHT22;23169;41.804;12.596;2023-04-25T01:51:43;13.20;24.00
37281;DHT22;23169;41.804;12.596;2023-04-25T01:54:12;13.10;21.40
37281;DHT22;23169;41.804;12.596;2023-04-25T01:56:41;13.10;17.30
37281;DHT22;23169;41.804;12.596;2023-04-25T01:59:10;13.10;12.50
37281;DHT22;23169;41.804;12.596;2023-04-25T02:01:39;13.40;25.30
37281;DHT22;23169;41.804;12.596;2023-04-25T02:04:09;13.10;9.30
37281;DHT22;23169;41.804;12.596;2023-04-25T02:06:38;13.10;8.10
37281;DHT22;23169;41.804;12.596;2023-04-25T02:09:06;13.20;6.50
37281;DHT22;23169;41.804;12.596;2023-04-25T02:11:36;13.20;5.40
37281;DHT22;23169;41.804;12.596;2023-04-25T02:14:05;13.20;4.00
37281;DHT22;23169;41.804;12.596;2023-04-25T02:16:34;13.20;2.50
37281;DHT22;23169;41.804;12.596;2023-04-25T02:19:03;13.20;2.90
37281;DHT22;23169;41.804;12.596;2023-04-25T02:21:32;13.20;2.70
37281;DHT22;23169;41.804;12.596;2023-04-25T02:24:04;13.20;2.20
37281;DHT22;23169;41.804;12.596;2023-04-25T02:26:34;13.20;2.50
37281;DHT22;23169;41.804;12.596;2023-04-25T02:29:03;13.30;1.40
37281;DHT22;23169;41.804;12.596;2023-04-25T02:31:31;13.20;2.50
37281;DHT22;23169;41.804;12.596;2023-04-25T02:34:00;13.20;5.60
37281;DHT22;23169;41.804;12.596;2023-04-25T02:36:29;13.20;21.50
37281;DHT22;23169;41.804;12.596;2023-04-25T02:39:01;13.20;25.40
37281;DHT22;23169;41.804;12.596;2023-04-25T02:41:29;13.60;47.10
37281;DHT22;23169;41.804;12.596;2023-04-25T02:43:58;13.20;24.40
37281;DHT22;23169;41.804;12.596;2023-04-25T02:46:27;13.10;23.80
37281;DHT22;23169;41.804;12.596;2023-04-25T02:48:55;13.20;23.60
37281;DHT22;23169;41.804;12.596;2023-04-25T02:51:23;13.20;22.90
37281;DHT22;23169;41.804;12.596;2023-04-25T02:53:52;13.20;21.90
37281;DHT22;23169;41.804;12.596;2023-04-25T02:56:20;13.20;23.60
37281;DHT22;23169;41.804;12.596;2023-04-25T02:58:50;13.10;27.80
37281;DHT22;23169;41.804;12.596;2023-04-25T03:01:18;13.10;32.30
37281;DHT22;23169;41.804;12.596;2023-04-25T03:03:47;13.00;44.40
37281;DHT22;23169;41.804;12.596;2023-04-25T03:06:16;13.00;55.80
37281;DHT22;23169;41.804;12.596;2023-04-25T03:08:45;13.00;60.10
37281;DHT22;23169;41.804;12.596;2023-04-25T03:11:14;13.00;57.20
37281;DHT22;23169;41.804;12.596;2023-04-25T03:13:42;13.10;58.00
37281;DHT22;23169;41.804;12.596;2023-04-25T03:16:11;13.10;57.40
37281;DHT22;23169;41.804;12.596;2023-04-25T03:18:40;13.10;55.50
37281;DHT22;23169;41.804;12.596;2023-04-25T03:21:08;13.20;54.90
37281;DHT22;23169;41.804;12.596;2023-04-25T03:23:37;13.20;57.90
37281;DHT22;23169;41.804;12.596;2023-04-25T03:26:08;13.20;55.50
37281;DHT22;23169;41.804;12.596;2023-04-25T03:28:37;13.30;53.00
37281;DHT22;23169;41.804;12.596;2023-04-25T03:31:06;13.30;55.00
37281;DHT22;23169;41.804;12.596;2023-04-25T03:33:34;13.40;53.90
37281;DHT22;23169;41.804;12.596;2023-04-25T03:36:03;13.40;52.10
37281;DHT22;23169;41.804;12.596;2023-04-25T03:38:32;13.50;49.20
37281;DHT22;23169;41.804;12.596;2023-04-25T03:41:01;13.60;47.00
37281;DHT22;23169;41.804;12.596;2023-04-25T03:43:31;13.60;43.30
37281;DHT22;23169;41.804;12.596;2023-04-25T03:46:00;13.60;39.20
37281;DHT22;23169;41.804;12.596;2023-04-25T03:48:30;13.60;32.50
37281;DHT22;23169;41.804;12.596;2023-04-25T03:50:58;13.60;40.80
37281;DHT22;23169;41.804;12.596;2023-04-25T03:53:27;13.70;31.10
37281;DHT22;23169;41.804;12.596;2023-04-25T03:55:56;13.70;27.30
37281;DHT22;23169;41.804;12.596;2023-04-25T03:58:25;13.60;28.20
37281;DHT22;23169;41.804;12.596;2023-04-25T04:00:54;13.60;29.40
37281;DHT22;23169;41.804;12.596;2023-04-25T04:03:22;13.50;30.00
37281;DHT22;23169;41.804;12.596;2023-04-25T04:05:50;13.60;30.80
37281;DHT22;23169;41.804;12.596;2023-04-25T04:08:19;13.60;30.10
37281;DHT22;23169;41.804;12.596;2023-04-25T04:10:47;13.60;29.50
37281;DHT22;23169;41.804;12.596;2023-04-25T04:13:16;13.50;30.20
37281;DHT22;23169;41.804;12.596;2023-04-25T04:15:46;13.50;30.00
37281;DHT22;23169;41.804;12.596;2023-04-25T04:18:14;13.40;34.30
37281;DHT22;23169;41.804;12.596;2023-04-25T04:20:44;13.40;31.70
37281;DHT22;23169;41.804;12.596;2023-04-25T04:23:15;13.30;33.60
37281;DHT22;23169;41.804;12.596;2023-04-25T04:25:43;13.30;37.20
37281;DHT22;23169;41.804;12.596;2023-04-25T04:28:12;13.30;38.90
37281;DHT22;23169;41.804;12.596;2023-04-25T04:30:41;13.30;42.90
37281;DHT22;23169;41.804;12.596;2023-04-25T04:33:11;13.30;45.20
37281;DHT22;23169;41.804;12.596;2023-04-25T04:35:40;13.30;47.50
37281;DHT22;23169;41.804;12.596;2023-04-25T04:38:10;13.30;48.00
37281;DHT22;23169;41.804;12.596;2023-04-25T04:40:40;13.30;53.10
37281;DHT22;23169;41.804;12.596;2023-04-25T04:43:11;13.30;58.70
37281;DHT22;23169;41.804;12.596;2023-04-25T04:45:40;13.40;57.00
37281;DHT22;23169;41.804;12.596;2023-04-25T04:48:12;13.40;54.60
37281;DHT22;23169;41.804;12.596;2023-04-25T04:50:45;13.40;57.90
37281;DHT22;23169;41.804;12.596;2023-04-25T04:53:14;13.40;58.90
37281;DHT22;23169;41.804;12.596;2023-04-25T04:55:43;13.40;57.70
37281;DHT22;23169;41.804;12.596;2023-04-25T04:58:11;13.40;57.20
37281;DHT22;23169;41.804;12.596;2023-04-25T05:00:40;13.40;58.70
37281;DHT22;23169;41.804;12.596;2023-04-25T05:03:12;13.30;60.10
37281;DHT22;23169;41.804;12.596;2023-04-25T05:05:41;13.20;61.40
37281;DHT22;23169;41.804;12.596;2023-04-25T05:08:10;13.20;62.90
37281;DHT22;23169;41.804;12.596;2023-04-25T05:10:38;13.20;62.40
37281;DHT22;23169;41.804;12.596;2023-04-25T05:13:07;13.20;67.20
37281;DHT22;23169;41.804;12.596;2023-04-25T05:15:36;13.20;65.20
37281;DHT22;23169;41.804;12.596;2023-04-25T05:18:05;13.30;63.80
37281;DHT22;23169;41.804;12.596;2023-04-25T05:20:35;13.40;65.00
37281;DHT22;23169;41.804;12.596;2023-04-25T05:23:05;13.40;64.10
37281;DHT22;23169;41.804;12.596;2023-04-25T05:25:33;13.50;61.00
37281;DHT22;23169;41.804;12.596;2023-04-25T05:28:02;13.50;62.20
37281;DHT22;23169;41.804;12.596;2023-04-25T05:30:32;13.50;60.90
37281;DHT22;23169;41.804;12.596;2023-04-25T05:33:02;13.60;60.60
37281;DHT22;23169;41.804;12.596;2023-04-25T05:35:30;13.60;59.10
37281;DHT22;23169;41.804;12.596;2023-04-25T05:37:58;13.70;58.60
37281;DHT22;23169;41.804;12.596;2023-04-25T05:40:28;13.70;56.60
37281;DHT22;23169;41.804;12.596;2023-04-25T05:42:56;13.80;55.90
37281;DHT22;23169;41.804;12.596;2023-04-25T05:45:25;13.80;54.40
37281;DHT22;23169;41.804;12.596;2023-04-25T05:47:54;13.90;55.30
37281;DHT22;23169;41.804;12.596;2023-04-25T05:50:22;14.00;53.30
37281;DHT22;23169;41.804;12.596;2023-04-25T05:52:51;14.10;50.90
37281;DHT22;23169;41.804;12.596;2023-04-25T05:55:20;14.10;48.40
37281;DHT22;23169;41.804;12.596;2023-04-25T05:57:48;14.10;47.40
37281;DHT22;23169;41.804;12.596;2023-04-25T06:00:17;14.20;47.60
37281;DHT22;23169;41.804;12.596;2023-04-25T06:02:48;14.30;47.70
37281;DHT22;23169;41.804;12.596;2023-04-25T06:05:17;14.30;45.90
37281;DHT22;23169;41.804;12.596;2023-04-25T06:07:45;14.40;45.50
37281;DHT22;23169;41.804;12.596;2023-04-25T06:10:14;14.40;46.50
37281;DHT22;23169;41.804;12.596;2023-04-25T06:12:43;14.60;43.40
37281;DHT22;23169;41.804;12.596;2023-04-25T06:15:13;14.70;39.30
37281;DHT22;23169;41.804;12.596;2023-04-25T06:17:41;14.80;39.40
37281;DHT22;23169;41.804;12.596;2023-04-25T06:20:10;14.90;36.70
37281;DHT22;23169;41.804;12.596;2023-04-25T06:22:39;15.10;30.90
37281;DHT22;23169;41.804;12.596;2023-04-25T06:27:36;15.30;17.70
37281;DHT22;23169;41.804;12.596;2023-04-25T06:30:05;15.50;22.70
37281;DHT22;23169;41.804;12.596;2023-04-25T06:32:34;15.60;24.70
37281;DHT22;23169;41.804;12.596;2023-04-25T06:35:03;15.60;10.50
37281;DHT22;23169;41.804;12.596;2023-04-25T06:37:32;15.80;9.00
37281;DHT22;23169;41.804;12.596;2023-04-25T06:40:03;16.00;8.20
37281;DHT22;23169;41.804;12.596;2023-04-25T06:42:32;16.10;3.60
37281;DHT22;23169;41.804;12.596;2023-04-25T06:45:01;16.00;3.70
37281;DHT22;23169;41.804;12.596;2023-04-25T06:47:30;16.00;4.10
37281;DHT22;23169;41.804;12.596;2023-04-25T06:49:59;15.90;3.60
37281;DHT22;23169;41.804;12.596;2023-04-25T06:52:29;15.80;4.20
37281;DHT22;23169;41.804;12.596;2023-04-25T06:54:58;15.70;4.40
37281;DHT22;23169;41.804;12.596;2023-04-25T06:57:28;15.80;3.40
37281;DHT22;23169;41.804;12.596;2023-04-25T06:59:56;15.80;1.80
37281;DHT22;23169;41.804;12.596;2023-04-25T07:02:26;15.90;1.00
37281;DHT22;23169;41.804;12.596;2023-04-25T07:04:55;15.80;1.30
37281;DHT22;23169;41.804;12.596;2023-04-25T07:07:30;15.80;1.10
37281;DHT22;23169;41.804;12.596;2023-04-25T07:09:58;15.90;2.20
37281;DHT22;23169;41.804;12.596;2023-04-25T07:12:27;16.00;1.00
37281;DHT22;23169;41.804;12.596;2023-04-25T07:14:56;16.10;1.00
37281;DHT22;23169;41.804;12.596;2023-04-25T07:17:24;16.30;1.00
37281;DHT22;23169;41.804;12.596;2023-04-25T07:19:52;16.50;1.00
37281;DHT22;23169;41.804;12.596;2023-04-25T07:22:21;16.40;1.00
37281;DHT22;23169;41.804;12.596;2023-04-25T07:24:49;16.50;1.00
37281;DHT22;23169;41.804;12.596;2023-04-25T07:27:19;16.50;1.00
37281;DHT22;23169;41.804;12.596;2023-04-25T07:29:48;16.70;1.00
37281;DHT22;23169;41.804;12.596;2023-04-25T07:32:17;16.60;1.00
37281;DHT22;23169;41.804;12.596;2023-04-25T07:34:47;16.60;1.00
37281;DHT22;23169;41.804;12.596;2023-04-25T07:37:16;16.70;1.00
37281;DHT22;23169;41.804;12.596;2023-04-25T07:39:47;16.60;1.00
37281;DHT22;23169;41.804;12.596;2023-04-25T07:42:16;16.70;1.00
37281;DHT22;23169;41.804;12.596;2023-04-25T07:44:47;16.80;1.00
37281;DHT22;23169;41.804;12.596;2023-04-25T07:47:15;16.90;1.00
37281;DHT22;23169;41.804;12.596;2023-04-25T07:49:45;17.00;1.00
37281;DHT22;23169;41.804;12.596;2023-04-25T07:52:14;16.90;1.00
37281;DHT22;23169;41.804;12.596;2023-04-25T07:54:43;16.90;1.00
37281;DHT22;23169;41.804;12.596;2023-04-25T07:57:13;17.00;1.00
37281;DHT22;23169;41.804;12.596;2023-04-25T07:59:42;17.10;1.00
37281;DHT22;23169;41.804;12.596;2023-04-25T08:02:11;17.00;1.00
37281;DHT22;23169;41.804;12.596;2023-04-25T08:04:40;17.00;1.00
37281;DHT22;23169;41.804;12.596;2023-04-25T08:07:09;17.10;1.00
37281;DHT22;23169;41.804;12.596;2023-04-25T08:09:38;17.10;1.00
37281;DHT22;23169;41.804;12.596;2023-04-25T08:12:07;17.10;1.00
37281;DHT22;23169;41.804;12.596;2023-04-25T08:14:36;17.40;1.00
37281;DHT22;23169;41.804;12.596;2023-04-25T08:17:06;17.30;1.00
37281;DHT22;23169;41.804;12.596;2023-04-25T08:19:35;17.50;1.00
37281;DHT22;23169;41.804;12.596;2023-04-25T08:22:03;17.40;1.00
37281;DHT22;23169;41.804;12.596;2023-04-25T08:24:33;17.40;1.00
37281;DHT22;23169;41.804;12.596;2023-04-25T08:27:01;18.20;1.00
37281;DHT22;23169;41.804;12.596;2023-04-25T08:29:30;17.70;1.00
37281;DHT22;23169;41.804;12.596;2023-04-25T08:31:58;17.70;1.00
37281;DHT22;23169;41.804;12.596;2023-04-25T08:34:27;17.80;1.00
37281;DHT22;23169;41.804;12.596;2023-04-25T08:36:57;17.90;1.00
37281;DHT22;23169;41.804;12.596;2023-04-25T08:39:26;18.10;1.00
37281;DHT22;23169;41.804;12.596;2023-04-25T08:44:23;18.10;1.00
37281;DHT22;23169;41.804;12.596;2023-04-25T08:46:53;18.40;1.00
37281;DHT22;23169;41.804;12.596;2023-04-25T08:49:23;18.40;1.00
37281;DHT22;23169;41.804;12.596;2023-04-25T08:51:53;18.40;1.00
37281;DHT22;23169;41.804;12.596;2023-04-25T08:54:24;18.30;1.00
37281;DHT22;23169;41.804;12.596;2023-04-25T08:56:56;18.40;1.00
37281;DHT22;23169;41.804;12.596;2023-04-25T08:59:29;18.50;1.00
37281;DHT22;23169;41.804;12.596;2023-04-25T09:01:58;18.60;1.00
37281;DHT22;23169;41.804;12.596;2023-04-25T09:04:27;18.50;1.00
37281;DHT22;23169;41.804;12.596;2023-04-25T09:09:46;19.00;1.00
37281;DHT22;23169;41.804;12.596;2023-04-25T09:12:18;19.20;1.00
37281;DHT22;23169;41.804;12.596;2023-04-25T09:15:07;19.20;1.00
37281;DHT22;23169;41.804;12.596;2023-04-25T09:17:36;19.40;1.00
37281;DHT22;23169;41.804;12.596;2023-04-25T09:20:13;19.40;1.00
37281;DHT22;23169;41.804;12.596;2023-04-25T09:22:42;19.60;1.00
37281;DHT22;23169;41.804;12.596;2023-04-25T09:25:14;19.50;1.00
37281;DHT22;23169;41.804;12.596;2023-04-25T09:27:50;19.30;1.00
37281;DHT22;23169;41.804;12.596;2023-04-25T09:30:35;19.30;1.00
37281;DHT22;23169;41.804;12.596;2023-04-25T09:35:36;19.30;1.00
37281;DHT22;23169;41.804;12.596;2023-04-25T09:38:10;19.30;1.00
37281;DHT22;23169;41.804;12.596;2023-04-25T09:43:10;19.20;1.00
37281;DHT22;23169;41.804;12.596;2023-04-25T09:45:42;19.50;1.00
37281;DHT22;23169;41.804;12.596;2023-04-25T09:48:19;19.90;1.00
37281;DHT22;23169;41.804;12.596;2023-04-25T09:51:11;20.10;1.00
37281;DHT22;23169;41.804;12.596;2023-04-25T09:53:47;20.50;1.00
37281;DHT22;23169;41.804;12.596;2023-04-25T09:56:20;20.40;1.00
37281;DHT22;23169;41.804;12.596;2023-04-25T09:58:55;20.20;1.00
37281;DHT22;23169;41.804;12.596;2023-04-25T10:01:25;20.30;1.00
37281;DHT22;23169;41.804;12.596;2023-04-25T10:03:56;20.30;1.00
37281;DHT22;23169;41.804;12.596;2023-04-25T10:06:27;20.30;1.00
37281;DHT22;23169;41.804;12.596;2023-04-25T10:08:58;20.30;1.00
37281;DHT22;23169;41.804;12.596;2023-04-25T10:13:57;20.70;1.00
37281;DHT22;23169;41.804;12.596;2023-04-25T10:16:26;21.20;1.00
37281;DHT22;23169;41.804;12.596;2023-04-25T10:18:56;21.00;1.00
37281;DHT22;23169;41.804;12.596;2023-04-25T10:21:27;20.80;1.00
37281;DHT22;23169;41.804;12.596;2023-04-25T10:23:56;20.70;1.00
37281;DHT22;23169;41.804;12.596;2023-04-25T10:26:27;20.80;1.00
37281;DHT22;23169;41.804;12.596;2023-04-25T10:29:01;21.10;1.00
37281;DHT22;23169;41.804;12.596;2023-04-25T10:31:31;21.10;1.00
37281;DHT22;23169;41.804;12.596;2023-04-25T10:34:00;21.10;1.00
37281;DHT22;23169;41.804;12.596;2023-04-25T10:36:32;21.20;1.00
37281;DHT22;23169;41.804;12.596;2023-04-25T10:39:04;21.50;1.00
37281;DHT22;23169;41.804;12.596;2023-04-25T10:41:57;21.20;1.00
37281;DHT22;23169;41.804;12.596;2023-04-25T10:44:27;21.60;1.00
37281;DHT22;23169;41.804;12.596;2023-04-25T10:46:58;22.00;1.00
37281;DHT22;23169;41.804;12.596;2023-04-25T10:49:38;21.80;1.00
37281;DHT22;23169;41.804;12.596;2023-04-25T10:54:55;21.70;1.00
37281;DHT22;23169;41.804;12.596;2023-04-25T10:57:28;21.60;1.00
37281;DHT22;23169;41.804;12.596;2023-04-25T11:00:14;21.50;1.00
37281;DHT22;23169;41.804;12.596;2023-04-25T11:02:57;21.10;1.00
37281;DHT22;23169;41.804;12.596;2023-04-25T11:05:36;21.40;1.00
37281;DHT22;23169;41.804;12.596;2023-04-25T11:08:11;21.60;1.00
37281;DHT22;23169;41.804;12.596;2023-04-25T11:10:40;21.60;1.00
37281;DHT22;23169;41.804;12.596;2023-04-25T11:13:09;21.40;1.00
37281;DHT22;23169;41.804;12.596;2023-04-25T11:15:40;21.70;1.00
37281;DHT22;23169;41.804;12.596;2023-04-25T11:18:08;22.10;1.00
37281;DHT22;23169;41.804;12.596;2023-04-25T11:20:43;22.20;1.00
37281;DHT22;23169;41.804;12.596;2023-04-25T11:23:11;22.00;1.00
37281;DHT22;23169;41.804;12.596;2023-04-25T11:25:42;21.80;1.00
37281;DHT22;23169;41.804;12.596;2023-04-25T11:28:11;21.60;1.00
37281;DHT22;23169;41.804;12.596;2023-04-25T11:30:39;21.80;1.00
37281;DHT22;23169;41.804;12.596;2023-04-25T11:33:09;21.80;1.00
37281;DHT22;23169;41.804;12.596;2023-04-25T11:35:40;22.40;1.00
37281;DHT22;23169;41.804;12.596;2023-04-25T11:38:09;22.40;1.00
37281;DHT22;23169;41.804;12.596;2023-04-25T11:40:39;22.40;1.00
37281;DHT22;23169;41.804;12.596;2023-04-25T11:43:09;22.70;1.00
37281;DHT22;23169;41.804;12.596;2023-04-25T11:45:38;22.30;1.00
37281;DHT22;23169;41.804;12.596;2023-04-25T11:48:07;22.40;1.00
37281;DHT22;23169;41.804;12.596;2023-04-25T11:50:35;22.60;1.00
37281;DHT22;23169;41.804;12.596;2023-04-25T11:55:37;23.50;1.00
37281;DHT22;23169;41.804;12.596;2023-04-25T11:58:06;23.40;1.00
37281;DHT22;23169;41.804;12.596;2023-04-25T12:00:42;23.50;1.00
37281;DHT22;23169;41.804;12.596;2023-04-25T12:03:10;23.80;1.00
37281;DHT22;23169;41.804;12.596;2023-04-25T12:05:39;24.20;1.00
37281;DHT22;23169;41.804;12.596;2023-04-25T12:08:12;24.30;1.00
37281;DHT22;23169;41.804;12.596;2023-04-25T12:10:45;23.40;1.00
37281;DHT22;23169;41.804;12.596;2023-04-25T12:13:25;23.00;1.00
37281;DHT22;23169;41.804;12.596;2023-04-25T12:15:56;23.10;1.00
37281;DHT22;23169;41.804;12.596;2023-04-25T12:18:25;23.10;1.00
37281;DHT22;23169;41.804;12.596;2023-04-25T12:20:58;23.50;1.00
37281;DHT22;23169;41.804;12.596;2023-04-25T12:23:28;24.30;1.00
37281;DHT22;23169;41.804;12.596;2023-04-25T12:25:57;24.30;1.00
37281;DHT22;23169;41.804;12.596;2023-04-25T12:28:26;24.60;1.00
37281;DHT22;23169;41.804;12.596;2023-04-25T12:36:01;24.30;1.00
37281;DHT22;23169;41.804;12.596;2023-04-25T12:38:36;23.90;1.00
37281;DHT22;23169;41.804;12.596;2023-04-25T12:41:05;23.90;1.00
37281;DHT22;23169;41.804;12.596;2023-04-25T12:43:34;24.40;1.00
37281;DHT22;23169;41.804;12.596;2023-04-25T12:46:03;24.30;1.00
37281;DHT22;23169;41.804;12.596;2023-04-25T12:48:33;23.90;1.00
37281;DHT22;23169;41.804;12.596;2023-04-25T12:51:03;23.40;1.00
37281;DHT22;23169;41.804;12.596;2023-04-25T12:53:31;22.80;1.00
37281;DHT22;23169;41.804;12.596;2023-04-25T12:56:00;23.80;1.00
37281;DHT22;23169;41.804;12.596;2023-04-25T12:58:30;23.30;1.00
37281;DHT22;23169;41.804;12.596;2023-04-25T13:00:59;23.90;1.00
37281;DHT22;23169;41.804;12.596;2023-04-25T13:03:30;23.70;1.00
37281;DHT22;23169;41.804;12.596;2023-04-25T13:05:59;23.00;1.00
37281;DHT22;23169;41.804;12.596;2023-04-25T13:08:30;23.70;1.00
37281;DHT22;23169;41.804;12.596;2023-04-25T13:10:59;22.70;1.00
37281;DHT22;23169;41.804;12.596;2023-04-25T13:13:29;22.50;1.00
37281;DHT22;23169;41.804;12.596;2023-04-25T13:15:59;22.60;1.00
37281;DHT22;23169;41.804;12.596;2023-04-25T13:18:29;22.40;1.00
37281;DHT22;23169;41.804;12.596;2023-04-25T13:20:58;22.80;1.00
37281;DHT22;23169;41.804;12.596;2023-04-25T13:23:29;23.20;1.00
37281;DHT22;23169;41.804;12.596;2023-04-25T13:25:59;23.10;1.00
37281;DHT22;23169;41.804;12.596;2023-04-25T13:28:32;22.10;1.00
37281;DHT22;23169;41.804;12.596;2023-04-25T13:31:01;22.50;1.00
37281;DHT22;23169;41.804;12.596;2023-04-25T13:33:29;22.50;1.00
37281;DHT22;23169;41.804;12.596;2023-04-25T13:35:58;22.60;1.00
37281;DHT22;23169;41.804;12.596;2023-04-25T13:38:27;22.40;1.00
37281;DHT22;23169;41.804;12.596;2023-04-25T13:40:55;21.90;1.00
37281;DHT22;23169;41.804;12.596;2023-04-25T13:43:24;22.40;1.00
37281;DHT22;23169;41.804;12.596;2023-04-25T13:45:53;22.80;1.00
37281;DHT22;23169;41.804;12.596;2023-04-25T13:48:21;23.80;1.00
37281;DHT22;23169;41.804;12.596;2023-04-25T13:50:50;25.30;1.00
37281;DHT22;23169;41.804;12.596;2023-04-25T13:53:21;25.70;1.00
37281;DHT22;23169;41.804;12.596;2023-04-25T13:55:49;26.20;1.00
37281;DHT22;23169;41.804;12.596;2023-04-25T13:58:19;25.20;1.00
37281;DHT22;23169;41.804;12.596;2023-04-25T14:00:48;25.20;1.00
37281;DHT22;23169;41.804;12.596;2023-04-25T14:03:17;24.50;1.00
37281;DHT22;23169;41.804;12.596;2023-04-25T14:05:45;25.40;1.00
37281;DHT22;23169;41.804;12.596;2023-04-25T14:08:16;26.20;1.00
37281;DHT22;23169;41.804;12.596;2023-04-25T14:10:45;26.30;1.00
37281;DHT22;23169;41.804;12.596;2023-04-25T14:13:14;26.50;1.00
37281;DHT22;23169;41.804;12.596;2023-04-25T14:15:44;27.30;1.00
37281;DHT22;23169;41.804;12.596;2023-04-25T14:18:14;27.80;1.00
37281;DHT22;23169;41.804;12.596;2023-04-25T14:20:44;27.50;1.00
37281;DHT22;23169;41.804;12.596;2023-04-25T14:23:13;27.00;1.00
37281;DHT22;23169;41.804;12.596;2023-04-25T14:25:42;27.30;1.00
37281;DHT22;23169;41.804;12.596;2023-04-25T14:28:10;25.50;1.00
37281;DHT22;23169;41.804;12.596;2023-04-25T14:30:40;25.20;1.00
37281;DHT22;23169;41.804;12.596;2023-04-25T14:33:08;26.20;1.00
37281;DHT22;23169;41.804;12.596;2023-04-25T14:35:37;25.90;1.00
37281;DHT22;23169;41.804;12.596;2023-04-25T14:38:06;26.50;1.00
37281;DHT22;23169;41.804;12.596;2023-04-25T14:40:35;27.00;1.00
37281;DHT22;23169;41.804;12.596;2023-04-25T14:43:09;27.70;1.00
37281;DHT22;23169;41.804;12.596;2023-04-25T14:45:38;28.00;1.00
37281;DHT22;23169;41.804;12.596;2023-04-25T14:48:07;28.00;1.00
37281;DHT22;23169;41.804;12.596;2023-04-25T14:50:36;27.20;1.00
37281;DHT22;23169;41.804;12.596;2023-04-25T14:53:05;27.40;1.00
37281;DHT22;23169;41.804;12.596;2023-04-25T14:55:34;27.00;1.00
37281;DHT22;23169;41.804;12.596;2023-04-25T14:58:03;27.60;1.00
37281;DHT22;23169;41.804;12.596;2023-04-25T15:00:32;28.30;1.00
37281;DHT22;23169;41.804;12.596;2023-04-25T15:03:01;28.30;1.00
37281;DHT22;23169;41.804;12.596;2023-04-25T15:05:29;28.30;1.00
37281;DHT22;23169;41.804;12.596;2023-04-25T15:08:02;28.20;1.00
37281;DHT22;23169;41.804;12.596;2023-04-25T15:10:30;27.50;1.00
37281;DHT22;23169;41.804;12.596;2023-04-25T15:12:59;28.10;1.00
37281;DHT22;23169;41.804;12.596;2023-04-25T15:15:29;27.50;1.00
37281;DHT22;23169;41.804;12.596;2023-04-25T15:17:57;26.70;1.00
37281;DHT22;23169;41.804;12.596;2023-04-25T15:22:56;27.60;1.00
37281;DHT22;23169;41.804;12.596;2023-04-25T15:25:26;27.80;1.00
37281;DHT22;23169;41.804;12.596;2023-04-25T15:27:57;27.20;1.00
37281;DHT22;23169;41.804;12.596;2023-04-25T15:30:25;27.40;1.00
37281;DHT22;23169;41.804;12.596;2023-04-25T15:32:53;26.50;1.00
37281;DHT22;23169;41.804;12.596;2023-04-25T15:35:22;25.90;1.00
37281;DHT22;23169;41.804;12.596;2023-04-25T15:37:51;26.30;1.00
37281;DHT22;23169;41.804;12.596;2023-04-25T15:40:19;27.30;1.00
37281;DHT22;23169;41.804;12.596;2023-04-25T15:42:50;27.40;1.00
37281;DHT22;23169;41.804;12.596;2023-04-25T15:45:24;28.00;1.00
37281;DHT22;23169;41.804;12.596;2023-04-25T15:47:56;27.90;1.00
37281;DHT22;23169;41.804;12.596;2023-04-25T15:50:27;27.80;1.00
37281;DHT22;23169;41.804;12.596;2023-04-25T15:55:25;25.10;1.00
37281;DHT22;23169;41.804;12.596;2023-04-25T15:57:54;24.00;1.00
37281;DHT22;23169;41.804;12.596;2023-04-25T16:00:27;23.40;1.00
37281;DHT22;23169;41.804;12.596;2023-04-25T16:02:56;22.80;1.00
37281;DHT22;23169;41.804;12.596;2023-04-25T16:05:24;22.40;1.00
37281;DHT22;23169;41.804;12.596;2023-04-25T16:07:53;22.30;1.00
37281;DHT22;23169;41.804;12.596;2023-04-25T16:10:21;22.10;1.00
37281;DHT22;23169;41.804;12.596;2023-04-25T16:12:50;21.90;1.00